createdAt,value
2016-12-26T00:00:51.077Z,99.98
2016-12-26T00:02:02.066Z,99.99
2016-12-26T00:03:13.052Z,99.99
2016-12-26T00:04:24.290Z,99.99
2016-12-26T00:05:35.333Z,99.79
2016-12-26T00:06:46.342Z,99.69
2016-12-26T00:07:57.326Z,99.98
2016-12-26T00:09:08.312Z,99.99
2016-12-26T00:10:19.607Z,99.99
2016-12-26T00:11:30.601Z,99.99
2016-12-26T00:12:41.583Z,99.99
2016-12-26T00:13:52.566Z,99.99
2016-12-26T00:15:03.558Z,99.99
2016-12-26T00:16:14.592Z,99.99
2016-12-26T00:17:25.581Z,99.99
2016-12-26T00:18:36.806Z,99.98
2016-12-26T00:19:47.796Z,99.99
2016-12-26T00:20:58.782Z,99.99
2016-12-26T00:22:09.817Z,99.99
2016-12-26T00:23:20.808Z,99.99
2016-12-26T00:24:31.827Z,99.99
2016-12-26T00:25:42.814Z,99.99
2016-12-26T00:26:53.804Z,99.99
2016-12-26T00:28:04.842Z,99.99
2016-12-26T00:29:15.828Z,99.99
2016-12-26T00:30:26.815Z,99.99
2016-12-26T00:31:37.806Z,99.99
2016-12-26T00:32:48.791Z,99.99
2016-12-26T00:34:00.024Z,99.99
2016-12-26T00:35:11.213Z,99.99
2016-12-26T00:36:22.400Z,99.99
2016-12-26T00:37:33.386Z,99.99
2016-12-26T00:38:44.398Z,99.99
2016-12-26T00:39:55.433Z,99.99
2016-12-26T00:41:06.421Z,99.99
2016-12-26T00:42:17.615Z,99.99
2016-12-26T00:43:28.594Z,99.99
2016-12-26T00:44:39.595Z,99.99
2016-12-26T00:45:50.647Z,99.99
2016-12-26T00:47:01.633Z,99.99
2016-12-26T00:48:12.617Z,99.99
2016-12-26T00:49:23.804Z,99.99
2016-12-26T00:50:34.785Z,99.99
2016-12-26T00:51:45.823Z,99.99
2016-12-26T00:52:56.806Z,99.99
2016-12-26T00:54:07.815Z,99.99
2016-12-26T00:55:19.029Z,99.99
2016-12-26T00:56:30.011Z,99.99
2016-12-26T00:57:41.452Z,99.99
2016-12-26T00:58:52.443Z,99.99
2016-12-26T01:00:03.436Z,99.99
2016-12-26T01:01:14.421Z,99.99
2016-12-26T01:02:25.405Z,99.99
2016-12-26T01:03:36.456Z,99.99
2016-12-26T01:04:47.439Z,99.99
2016-12-26T01:05:58.420Z,99.99
2016-12-26T01:07:09.420Z,99.99
2016-12-26T01:08:20.414Z,99.99
2016-12-26T01:09:31.459Z,99.99
2016-12-26T01:10:42.450Z,99.99
2016-12-26T01:11:53.447Z,99.99
2016-12-26T01:13:04.425Z,99.99
2016-12-26T01:14:15.620Z,99.99
2016-12-26T01:15:26.661Z,99.99
2016-12-26T01:16:37.858Z,99.99
2016-12-26T01:17:48.840Z,99.99
2016-12-26T01:18:59.825Z,99.99
2016-12-26T01:20:10.805Z,99.99
2016-12-26T01:21:21.841Z,99.99
2016-12-26T01:22:32.830Z,99.99
2016-12-26T01:23:43.821Z,99.99
2016-12-26T01:24:54.804Z,99.99
2016-12-26T01:26:05.818Z,99.99
2016-12-26T01:27:16.852Z,99.99
2016-12-26T01:28:27.843Z,99.99
2016-12-26T01:29:38.824Z,99.99
2016-12-26T01:30:49.807Z,99.99
2016-12-26T01:32:00.795Z,99.99
2016-12-26T01:33:11.825Z,99.99
2016-12-26T01:34:23.020Z,99.99
2016-12-26T01:35:34.009Z,99.99
2016-12-26T01:36:45.202Z,99.99
2016-12-26T01:37:56.191Z,99.99
2016-12-26T01:39:07.225Z,99.99
2016-12-26T01:40:18.423Z,99.99
2016-12-26T01:41:29.817Z,99.99
2016-12-26T01:42:40.800Z,99.99
2016-12-26T01:43:51.795Z,99.99
2016-12-26T01:45:02.818Z,99.99
2016-12-26T01:46:13.801Z,99.99
2016-12-26T01:47:24.793Z,99.99
2016-12-26T01:48:35.774Z,99.99
2016-12-26T01:49:46.760Z,99.99
2016-12-26T01:50:57.793Z,99.99
2016-12-26T01:52:08.783Z,99.99
2016-12-26T01:53:19.764Z,99.99
2016-12-26T01:54:30.959Z,99.99
2016-12-26T01:55:41.946Z,99.99
2016-12-26T01:56:52.985Z,99.99
2016-12-26T01:58:03.975Z,99.99
2016-12-26T01:59:14.962Z,99.99
2016-12-26T02:00:25.952Z,99.99
2016-12-26T02:01:36.940Z,99.99
2016-12-26T02:02:47.981Z,99.99
2016-12-26T02:03:58.980Z,99.99
2016-12-26T02:05:09.956Z,99.99
2016-12-26T02:06:21.148Z,99.99
2016-12-26T02:07:32.336Z,99.99
2016-12-26T02:08:43.573Z,99.99
2016-12-26T02:09:54.568Z,99.99
2016-12-26T02:11:05.550Z,99.99
2016-12-26T02:12:16.536Z,99.99
2016-12-26T02:13:27.524Z,99.99
2016-12-26T02:14:38.561Z,99.99
2016-12-26T02:15:49.546Z,99.99
2016-12-26T02:17:00.529Z,99.99
2016-12-26T02:18:11.512Z,99.99
2016-12-26T02:19:22.503Z,99.99
2016-12-26T02:20:33.536Z,99.99
2016-12-26T02:21:44.527Z,99.99
2016-12-26T02:22:55.508Z,99.99
2016-12-26T02:24:06.503Z,99.99
2016-12-26T02:25:17.498Z,99.99
2016-12-26T02:26:28.547Z,99.99
2016-12-26T02:27:39.928Z,99.99
2016-12-26T02:28:50.912Z,99.99
2016-12-26T02:30:01.900Z,99.99
2016-12-26T02:31:13.113Z,99.99
2016-12-26T02:32:24.146Z,99.99
2016-12-26T02:33:35.333Z,99.99
2016-12-26T02:34:46.316Z,99.99
2016-12-26T02:35:57.310Z,99.99
2016-12-26T02:37:08.300Z,99.99
2016-12-26T02:38:19.342Z,99.99
2016-12-26T02:39:30.324Z,99.99
2016-12-26T02:40:41.321Z,99.99
2016-12-26T02:41:52.299Z,99.99
2016-12-26T02:43:03.285Z,99.99
2016-12-26T02:44:14.320Z,99.99
2016-12-26T02:45:25.309Z,99.99
2016-12-26T02:46:36.289Z,99.99
2016-12-26T02:47:47.272Z,99.99
2016-12-26T02:48:58.259Z,99.99
2016-12-26T02:50:09.297Z,99.99
2016-12-26T02:51:20.297Z,99.99
2016-12-26T02:52:31.288Z,99.99
2016-12-26T02:53:42.480Z,99.99
2016-12-26T02:54:53.461Z,99.99
2016-12-26T02:56:04.702Z,99.99
2016-12-26T02:57:15.692Z,99.99
2016-12-26T02:58:26.676Z,99.99
2016-12-26T02:59:37.665Z,99.99
2016-12-26T03:00:48.654Z,99.99
2016-12-26T03:01:59.689Z,99.99
2016-12-26T03:03:10.680Z,99.99
2016-12-26T03:04:21.687Z,99.99
2016-12-26T03:05:32.671Z,99.99
2016-12-26T03:06:43.859Z,99.99
2016-12-26T03:07:54.900Z,99.99
2016-12-26T03:09:05.890Z,99.99
2016-12-26T03:10:17.277Z,99.99
2016-12-26T03:11:28.272Z,99.99
2016-12-26T03:12:39.263Z,99.99
2016-12-26T03:13:50.303Z,99.99
2016-12-26T03:15:01.288Z,99.99
2016-12-26T03:16:12.272Z,99.99
2016-12-26T03:17:23.258Z,99.99
2016-12-26T03:18:34.278Z,99.99
2016-12-26T03:19:45.314Z,99.99
2016-12-26T03:20:56.505Z,99.99
2016-12-26T03:22:07.491Z,99.99
2016-12-26T03:23:18.487Z,99.99
2016-12-26T03:24:29.476Z,99.99
2016-12-26T03:25:40.511Z,99.99
2016-12-26T03:26:51.493Z,99.99
2016-12-26T03:28:02.478Z,99.99
2016-12-26T03:29:13.462Z,99.99
2016-12-26T03:30:24.453Z,99.99
2016-12-26T03:31:35.494Z,99.99
2016-12-26T03:32:46.682Z,99.99
2016-12-26T03:33:57.664Z,99.99
2016-12-26T03:35:08.849Z,99.99
2016-12-26T03:36:20.027Z,99.99
2016-12-26T03:37:31.071Z,99.99
2016-12-26T03:38:42.055Z,99.99
2016-12-26T03:39:53.040Z,99.99
2016-12-26T03:41:04.236Z,99.99
2016-12-26T03:42:15.222Z,99.99
2016-12-26T03:43:26.267Z,99.99
2016-12-26T03:44:37.253Z,99.99
2016-12-26T03:45:48.239Z,99.99
2016-12-26T03:46:59.433Z,99.99
2016-12-26T03:48:10.417Z,99.99
2016-12-26T03:49:21.456Z,99.99
2016-12-26T03:50:32.443Z,99.99
2016-12-26T03:51:43.422Z,99.99
2016-12-26T03:52:54.617Z,99.99
2016-12-26T03:54:05.614Z,99.79
2016-12-26T03:55:16.853Z,99.99
2016-12-26T03:56:27.850Z,99.99
2016-12-26T03:57:38.838Z,99.99
2016-12-26T03:58:50.038Z,99.99
2016-12-26T04:00:01.224Z,99.99
2016-12-26T04:01:12.251Z,99.99
2016-12-26T04:02:23.258Z,99.99
2016-12-26T04:03:34.242Z,99.99
2016-12-26T04:04:45.237Z,99.99
2016-12-26T04:05:56.230Z,99.99
2016-12-26T04:07:07.264Z,99.99
2016-12-26T04:08:18.250Z,99.99
2016-12-26T04:09:29.277Z,99.79
2016-12-26T04:10:40.274Z,99.99
2016-12-26T04:11:51.469Z,99.99
2016-12-26T04:13:02.510Z,99.98
2016-12-26T04:14:13.496Z,99.89
2016-12-26T04:15:24.685Z,99.79
2016-12-26T04:16:35.683Z,99.99
2016-12-26T04:17:46.672Z,99.99
2016-12-26T04:18:57.708Z,99.99
2016-12-26T04:20:08.692Z,98.84
2016-12-26T04:21:19.677Z,99.99
2016-12-26T04:22:30.667Z,99.99
2016-12-26T04:23:41.854Z,99.99
2016-12-26T04:24:52.896Z,98.55
2016-12-26T04:26:03.879Z,98.84
2016-12-26T04:27:14.863Z,97.6
2016-12-26T04:28:25.856Z,99.79
2016-12-26T04:29:36.832Z,97.7
2016-12-26T04:30:48.073Z,99.03
2016-12-26T04:31:59.071Z,99.03
2016-12-26T04:33:10.263Z,98.84
2016-12-26T04:34:21.454Z,98.55
2016-12-26T04:35:32.439Z,97.89
2016-12-26T04:36:43.680Z,98.65
2016-12-26T04:37:54.663Z,98.74
2016-12-26T04:39:05.649Z,98.55
2016-12-26T04:40:16.638Z,97.99
2016-12-26T04:41:27.636Z,97.6
2016-12-26T04:42:38.708Z,97.51
2016-12-26T04:43:49.694Z,96.75
2016-12-26T04:45:00.685Z,97.89
2016-12-26T04:46:11.866Z,98.94
2016-12-26T04:47:23.060Z,97.99
2016-12-26T04:48:34.102Z,98.94
2016-12-26T04:49:45.086Z,98.84
2016-12-26T04:50:56.279Z,97.79
2016-12-26T04:52:07.267Z,97.99
2016-12-26T04:53:18.259Z,98.74
2016-12-26T04:54:29.298Z,98.65
2016-12-26T04:55:40.488Z,99.13
2016-12-26T04:56:51.681Z,98.65
2016-12-26T04:58:02.665Z,99.51
2016-12-26T04:59:13.648Z,98.36
2016-12-26T05:00:24.689Z,98.65
2016-12-26T05:01:35.674Z,98.36
2016-12-26T05:02:46.860Z,98.27
2016-12-26T05:03:57.846Z,98.36
2016-12-26T05:05:08.836Z,98.46
2016-12-26T05:06:19.866Z,98.27
2016-12-26T05:07:30.868Z,97.89
2016-12-26T05:08:42.046Z,98.18
2016-12-26T05:09:53.087Z,98.74
2016-12-26T05:11:04.071Z,98.08
2016-12-26T05:12:15.107Z,97.99
2016-12-26T05:13:26.087Z,97.7
2016-12-26T05:14:37.077Z,97.51
2016-12-26T05:15:48.269Z,98.46
2016-12-26T05:16:59.259Z,98.08
2016-12-26T05:18:10.323Z,97.79
2016-12-26T05:19:21.314Z,97.6
2016-12-26T05:20:32.299Z,97.03
2016-12-26T05:21:43.319Z,98.65
2016-12-26T05:22:54.508Z,97.6
2016-12-26T05:24:05.546Z,97.79
2016-12-26T05:25:16.529Z,97.31
2016-12-26T05:26:27.522Z,98.46
2016-12-26T05:27:38.524Z,97.99
2016-12-26T05:28:49.505Z,97.89
2016-12-26T05:30:00.539Z,96.27
2016-12-26T05:31:11.530Z,97.79
2016-12-26T05:32:22.514Z,97.7
2016-12-26T05:33:33.700Z,98.94
2016-12-26T05:34:44.680Z,97.6
2016-12-26T05:35:55.710Z,98.18
2016-12-26T05:37:06.695Z,99.22
2016-12-26T05:38:17.684Z,97.99
2016-12-26T05:39:28.678Z,97.03
2016-12-26T05:40:39.667Z,98.74
2016-12-26T05:41:50.701Z,98.36
2016-12-26T05:43:01.723Z,98.08
2016-12-26T05:44:12.712Z,97.89
2016-12-26T05:45:23.703Z,97.79
2016-12-26T05:46:35.096Z,96.94
2016-12-26T05:47:46.134Z,98.36
2016-12-26T05:48:57.115Z,97.31
2016-12-26T05:50:08.110Z,96.46
2016-12-26T05:51:19.130Z,96.55
2016-12-26T05:52:30.121Z,97.31
2016-12-26T05:53:41.158Z,96.46
2016-12-26T05:54:52.152Z,98.08
2016-12-26T05:56:03.550Z,96.94
2016-12-26T05:57:14.526Z,97.03
2016-12-26T05:58:25.513Z,97.99
2016-12-26T05:59:36.765Z,96.94
2016-12-26T06:00:47.751Z,97.31
2016-12-26T06:01:58.736Z,97.89
2016-12-26T06:03:09.714Z,97.99
2016-12-26T06:04:20.697Z,97.79
2016-12-26T06:05:31.739Z,96.65
2016-12-26T06:06:43.163Z,97.22
2016-12-26T06:07:54.151Z,97.13
2016-12-26T06:09:05.131Z,97.6
2016-12-26T06:10:16.118Z,96.55
2016-12-26T06:11:27.353Z,96.55
2016-12-26T06:12:38.551Z,96.36
2016-12-26T06:13:49.539Z,95.6
2016-12-26T06:15:00.529Z,96.46
2016-12-26T06:16:11.512Z,96.36
2016-12-26T06:17:22.553Z,94.56
2016-12-26T06:18:33.542Z,94.65
2016-12-26T06:19:44.527Z,94.65
2016-12-26T06:20:55.533Z,94.37
2016-12-26T06:22:06.511Z,94.37
2016-12-26T06:23:17.548Z,95.51
2016-12-26T06:24:28.561Z,93.41
2016-12-26T06:25:39.542Z,94.84
2016-12-26T06:26:50.532Z,94.56
2016-12-26T06:28:01.727Z,93.7
2016-12-26T06:29:12.778Z,94.37
2016-12-26T06:30:23.762Z,95.03
2016-12-26T06:31:34.952Z,94.56
2016-12-26T06:32:46.135Z,94.65
2016-12-26T06:33:57.123Z,93.13
2016-12-26T06:35:08.160Z,93.79
2016-12-26T06:36:19.348Z,93.41
2016-12-26T06:37:30.337Z,93.89
2016-12-26T06:38:41.724Z,95.03
2016-12-26T06:39:52.708Z,94.56
2016-12-26T06:41:03.743Z,94.08
2016-12-26T06:42:14.725Z,93.89
2016-12-26T06:43:25.716Z,92.74
2016-12-26T06:44:36.706Z,92.84
2016-12-26T06:45:47.696Z,93.03
2016-12-26T06:46:58.732Z,93.51
2016-12-26T06:48:09.726Z,93.13
2016-12-26T06:49:20.711Z,93.22
2016-12-26T06:50:31.695Z,93.41
2016-12-26T06:51:42.695Z,93.7
2016-12-26T06:52:53.736Z,94.17
2016-12-26T06:54:04.726Z,93.79
2016-12-26T06:55:15.728Z,92.55
2016-12-26T06:56:26.710Z,93.41
2016-12-26T06:57:37.898Z,93.6
2016-12-26T06:58:48.931Z,93.6
2016-12-26T06:59:59.924Z,93.79
2016-12-26T07:01:10.911Z,94.74
2016-12-26T07:02:21.896Z,93.7
2016-12-26T07:03:32.887Z,93.89
2016-12-26T07:04:43.921Z,93.98
2016-12-26T07:05:54.906Z,93.6
2016-12-26T07:07:05.896Z,94.56
2016-12-26T07:08:16.896Z,94.84
2016-12-26T07:09:27.891Z,94.56
2016-12-26T07:10:38.933Z,93.98
2016-12-26T07:11:49.920Z,95.7
2016-12-26T07:13:00.931Z,96.08
2016-12-26T07:14:11.919Z,95.32
2016-12-26T07:15:22.898Z,95.6
2016-12-26T07:16:34.140Z,96.08
2016-12-26T07:17:45.126Z,96.27
2016-12-26T07:18:56.121Z,95.98
2016-12-26T07:20:07.103Z,95.6
2016-12-26T07:21:18.090Z,95.03
2016-12-26T07:22:29.335Z,95.89
2016-12-26T07:23:40.548Z,94.65
2016-12-26T07:24:51.537Z,95.41
2016-12-26T07:26:02.542Z,95.41
2016-12-26T07:27:13.526Z,96.08
2016-12-26T07:28:24.564Z,95.03
2016-12-26T07:29:35.552Z,95.89
2016-12-26T07:30:46.540Z,96.27
2016-12-26T07:31:57.530Z,93.13
2016-12-26T07:33:08.515Z,93.89
2016-12-26T07:34:19.707Z,92.94
2016-12-26T07:35:30.701Z,93.79
2016-12-26T07:36:41.685Z,94.08
2016-12-26T07:37:52.706Z,92.84
2016-12-26T07:39:03.693Z,93.03
2016-12-26T07:40:14.724Z,93.41
2016-12-26T07:41:25.712Z,92.36
2016-12-26T07:42:36.722Z,92.74
2016-12-26T07:43:47.704Z,92.36
2016-12-26T07:44:58.690Z,92.55
2016-12-26T07:46:09.728Z,92.94
2016-12-26T07:47:20.749Z,93.03
2016-12-26T07:48:31.735Z,91.89
2016-12-26T07:49:42.771Z,93.51
2016-12-26T07:50:53.955Z,93.6
2016-12-26T07:52:04.938Z,92.94
2016-12-26T07:53:15.924Z,93.41
2016-12-26T07:54:26.910Z,92.55
2016-12-26T07:55:37.906Z,92.27
2016-12-26T07:56:48.943Z,92.65
2016-12-26T07:57:59.934Z,92.46
2016-12-26T07:59:11.125Z,92.36
2016-12-26T08:00:22.109Z,93.22
2016-12-26T08:01:33.117Z,93.32
2016-12-26T08:02:44.150Z,93.41
2016-12-26T08:03:55.141Z,93.98
2016-12-26T08:05:06.351Z,92.84
2016-12-26T08:06:17.340Z,92.94
2016-12-26T08:07:28.337Z,92.74
2016-12-26T08:08:39.385Z,93.6
2016-12-26T08:09:50.377Z,92.84
2016-12-26T08:11:01.390Z,91.41
2016-12-26T08:12:12.371Z,91.79
2016-12-26T08:13:23.361Z,93.03
2016-12-26T08:14:34.405Z,94.79
2016-12-26T08:15:45.388Z,96.6
2016-12-26T08:16:56.365Z,96.7
2016-12-26T08:18:07.360Z,95.7
2016-12-26T08:19:18.350Z,95.41
2016-12-26T08:20:29.386Z,95.89
2016-12-26T08:21:40.376Z,96.17
2016-12-26T08:22:51.359Z,95.79
2016-12-26T08:24:02.344Z,95.7
2016-12-26T08:25:13.328Z,95.65
2016-12-26T08:26:24.762Z,94.89
2016-12-26T08:27:35.742Z,94.6
2016-12-26T08:28:46.734Z,93.65
2016-12-26T08:29:57.713Z,94.79
2016-12-26T08:31:08.912Z,94.79
2016-12-26T08:32:20.347Z,94.98
2016-12-26T08:33:31.334Z,94.6
2016-12-26T08:34:42.320Z,93.94
2016-12-26T08:35:53.511Z,94.42
2016-12-26T08:37:04.504Z,94.98
2016-12-26T08:38:15.531Z,93.94
2016-12-26T08:39:26.509Z,94.89
2016-12-26T08:40:37.496Z,94.79
2016-12-26T08:41:48.486Z,94.18
2016-12-26T08:42:59.467Z,93.79
2016-12-26T08:44:10.498Z,95.51
2016-12-26T08:45:21.489Z,94.65
2016-12-26T08:46:32.476Z,94.37
2016-12-26T08:47:43.666Z,94.37
2016-12-26T08:48:54.653Z,94.74
2016-12-26T08:50:05.895Z,94.37
2016-12-26T08:51:16.885Z,93.89
2016-12-26T08:52:27.878Z,93.89
2016-12-26T08:53:38.872Z,95.12
2016-12-26T08:54:50.061Z,94.46
2016-12-26T08:56:01.085Z,93.99
2016-12-26T08:57:12.276Z,93.79
2016-12-26T08:58:23.274Z,94.74
2016-12-26T08:59:34.263Z,93.51
2016-12-26T09:00:45.258Z,93.89
2016-12-26T09:01:56.292Z,94.65
2016-12-26T09:03:07.281Z,95.6
2016-12-26T09:04:18.271Z,96.36
2016-12-26T09:05:29.461Z,96.84
2016-12-26T09:06:40.647Z,96.36
2016-12-26T09:07:51.693Z,96.74
2016-12-26T09:09:02.676Z,96.45
2016-12-26T09:10:13.659Z,95.79
2016-12-26T09:11:24.646Z,95.41
2016-12-26T09:12:35.633Z,96.93
2016-12-26T09:13:46.880Z,96.65
2016-12-26T09:14:57.868Z,97.12
2016-12-26T09:16:08.855Z,99.99
2016-12-26T09:17:19.837Z,99.99
2016-12-26T09:18:30.823Z,99.99
2016-12-26T09:19:41.858Z,99.99
2016-12-26T09:20:52.848Z,99.99
2016-12-26T09:22:03.834Z,99.99
2016-12-26T09:23:14.814Z,99.99
2016-12-26T09:24:25.809Z,99.99
2016-12-26T09:25:36.845Z,99.99
2016-12-26T09:26:47.836Z,99.99
2016-12-26T09:27:58.814Z,99.99
2016-12-26T09:29:09.830Z,99.99
2016-12-26T09:30:20.817Z,99.99
2016-12-26T09:31:31.855Z,99.99
2016-12-26T09:32:42.870Z,99.99
2016-12-26T09:33:54.059Z,99.99
2016-12-26T09:35:05.071Z,99.99
2016-12-26T09:36:16.057Z,99.99
2016-12-26T09:37:27.092Z,99.99
2016-12-26T09:38:38.072Z,99.99
2016-12-26T09:39:49.055Z,99.99
2016-12-26T09:41:00.037Z,99.99
2016-12-26T09:42:11.018Z,99.99
2016-12-26T09:43:22.256Z,98.59
2016-12-26T09:44:33.445Z,99.99
2016-12-26T09:45:44.437Z,99.4
2016-12-26T09:46:55.427Z,99.99
2016-12-26T09:48:06.619Z,99.99
2016-12-26T09:49:17.658Z,99.5
2016-12-26T09:50:28.640Z,98.26
2016-12-26T09:51:39.633Z,98.17
2016-12-26T09:52:50.840Z,97.97
2016-12-26T09:54:01.827Z,99.97
2016-12-26T09:55:12.863Z,98.45
2016-12-26T09:56:23.843Z,99.99
2016-12-26T09:57:34.844Z,99.99
2016-12-26T09:58:45.841Z,99.4
2016-12-26T09:59:56.825Z,99.99
2016-12-26T10:01:07.808Z,99.99
2016-12-26T10:02:19.015Z,99.99
2016-12-26T10:03:29.997Z,99.78
2016-12-26T10:04:40.989Z,99.69
2016-12-26T10:05:51.979Z,98.64
2016-12-26T10:07:03.012Z,99.78
2016-12-26T10:08:13.997Z,99.99
2016-12-26T10:09:25.182Z,99.21
2016-12-26T10:10:36.173Z,99.99
2016-12-26T10:11:47.209Z,99.99
2016-12-26T10:12:58.192Z,99.99
2016-12-26T10:14:09.183Z,99.99
2016-12-26T10:15:20.169Z,99.99
2016-12-26T10:16:31.386Z,99.99
2016-12-26T10:17:42.448Z,99.99
2016-12-26T10:18:53.634Z,99.99
2016-12-26T10:20:04.626Z,99.99
2016-12-26T10:21:15.612Z,99.99
2016-12-26T10:22:26.603Z,99.99
2016-12-26T10:23:37.643Z,99.99
2016-12-26T10:24:48.626Z,99.99
2016-12-26T10:25:59.812Z,99.99
2016-12-26T10:27:10.995Z,99.99
2016-12-26T10:28:21.979Z,99.99
2016-12-26T10:29:33.220Z,99.99
2016-12-26T10:30:44.215Z,99.99
2016-12-26T10:31:55.197Z,99.99
2016-12-26T10:33:06.209Z,99.99
2016-12-26T10:34:17.185Z,99.99
2016-12-26T10:35:28.220Z,99.99
2016-12-26T10:36:39.204Z,99.99
2016-12-26T10:37:50.181Z,99.99
2016-12-26T10:39:01.165Z,99.99
2016-12-26T10:40:12.152Z,99.99
2016-12-26T10:41:23.383Z,99.99
2016-12-26T10:42:34.574Z,99.99
2016-12-26T10:43:45.562Z,99.99
2016-12-26T10:44:56.550Z,99.99
2016-12-26T10:46:07.564Z,99.99
2016-12-26T10:47:18.589Z,99.99
2016-12-26T10:48:29.581Z,99.99
2016-12-26T10:49:40.567Z,99.99
2016-12-26T10:50:51.544Z,99.99
2016-12-26T10:52:02.529Z,99.99
2016-12-26T10:53:13.564Z,99.99
2016-12-26T10:54:24.550Z,99.99
2016-12-26T10:55:35.536Z,99.99
2016-12-26T10:56:46.748Z,99.99
2016-12-26T10:57:57.723Z,99.99
2016-12-26T10:59:08.712Z,99.99
2016-12-26T11:00:19.705Z,99.99
2016-12-26T11:01:31.096Z,99.99
2016-12-26T11:02:42.085Z,99.99
2016-12-26T11:03:53.111Z,99.99
2016-12-26T11:05:04.102Z,99.99
2016-12-26T11:06:15.288Z,99.99
2016-12-26T11:07:26.309Z,99.99
2016-12-26T11:08:37.298Z,99.99
2016-12-26T11:09:48.342Z,99.99
2016-12-26T11:10:59.320Z,99.99
2016-12-26T11:12:10.308Z,99.99
2016-12-26T11:13:21.506Z,99.99
2016-12-26T11:14:32.694Z,99.99
2016-12-26T11:15:43.732Z,99.99
2016-12-26T11:16:54.722Z,99.99
2016-12-26T11:18:05.711Z,99.99
2016-12-26T11:19:16.696Z,99.99
2016-12-26T11:20:27.676Z,99.99
2016-12-26T11:21:38.711Z,99.99
2016-12-26T11:22:49.701Z,99.99
2016-12-26T11:24:00.686Z,99.99
2016-12-26T11:25:11.668Z,99.99
2016-12-26T11:26:22.650Z,99.99
2016-12-26T11:27:33.692Z,99.99
2016-12-26T11:28:44.681Z,99.99
2016-12-26T11:29:55.670Z,99.99
2016-12-26T11:31:06.660Z,99.99
2016-12-26T11:32:17.666Z,99.99
2016-12-26T11:33:28.703Z,99.99
2016-12-26T11:34:39.678Z,99.99
2016-12-26T11:35:51.069Z,99.99
2016-12-26T11:37:02.055Z,99.99
2016-12-26T11:38:13.040Z,99.99
2016-12-26T11:39:24.273Z,99.99
2016-12-26T11:40:35.252Z,99.99
2016-12-26T11:41:46.438Z,99.99
2016-12-26T11:42:57.421Z,99.99
2016-12-26T11:44:08.404Z,99.99
2016-12-26T11:45:19.441Z,99.99
2016-12-26T11:46:30.428Z,99.99
2016-12-26T11:47:41.412Z,99.99
2016-12-26T11:48:52.396Z,99.99
2016-12-26T11:50:03.385Z,99.99
2016-12-26T11:51:14.428Z,99.99
2016-12-26T11:52:25.410Z,99.99
2016-12-26T11:53:36.387Z,99.99
2016-12-26T11:54:47.380Z,99.99
2016-12-26T11:55:58.367Z,99.99
2016-12-26T11:57:09.361Z,99.99
2016-12-26T11:58:20.558Z,99.99
2016-12-26T11:59:31.780Z,99.99
2016-12-26T12:00:42.975Z,99.99
2016-12-26T12:01:54.168Z,99.99
2016-12-26T12:03:05.212Z,99.99
2016-12-26T12:04:16.196Z,99.99
2016-12-26T12:05:27.182Z,99.99
2016-12-26T12:06:38.173Z,99.99
2016-12-26T12:07:49.160Z,99.99
2016-12-26T12:09:00.342Z,99.99
2016-12-26T12:10:11.328Z,99.99
2016-12-26T12:11:22.311Z,99.99
2016-12-26T12:12:33.300Z,99.99
2016-12-26T12:13:44.337Z,99.99
2016-12-26T12:14:55.328Z,99.99
2016-12-26T12:16:06.324Z,99.99
2016-12-26T12:17:17.313Z,99.99
2016-12-26T12:18:28.503Z,99.99
2016-12-26T12:19:39.536Z,99.99
2016-12-26T12:20:50.516Z,99.99
2016-12-26T12:22:01.513Z,99.99
2016-12-26T12:23:12.729Z,99.99
2016-12-26T12:24:23.714Z,99.99
2016-12-26T12:25:34.752Z,99.99
2016-12-26T12:26:45.743Z,99.99
2016-12-26T12:27:56.727Z,99.99
2016-12-26T12:29:07.917Z,99.99
2016-12-26T12:30:18.906Z,99.99
2016-12-26T12:31:29.892Z,99.99
2016-12-26T12:32:40.910Z,99.99
2016-12-26T12:33:51.903Z,99.99
2016-12-26T12:35:02.969Z,99.99
2016-12-26T12:36:14.458Z,99.99
2016-12-26T12:37:25.847Z,99.99
2016-12-26T12:38:37.175Z,99.99
2016-12-26T12:39:48.165Z,99.99
2016-12-26T12:40:59.580Z,99.99
2016-12-26T12:42:10.621Z,99.99
2016-12-26T12:43:21.605Z,99.99
2016-12-26T12:44:32.594Z,99.99
2016-12-26T12:45:43.581Z,99.99
2016-12-26T12:46:54.967Z,99.99
2016-12-26T12:48:06.002Z,99.99
2016-12-26T12:49:16.987Z,99.99
2016-12-26T12:50:27.971Z,99.99
2016-12-26T12:51:38.965Z,99.99
2016-12-26T12:52:49.954Z,99.99
2016-12-26T12:54:00.945Z,99.99
2016-12-26T12:55:11.928Z,99.99
2016-12-26T12:56:22.939Z,99.99
2016-12-26T12:57:33.960Z,99.99
2016-12-26T12:58:45.003Z,99.99
2016-12-26T12:59:56.194Z,99.99
2016-12-26T13:01:07.188Z,99.99
2016-12-26T13:02:18.174Z,99.99
2016-12-26T13:03:29.364Z,99.99
2016-12-26T13:04:40.405Z,99.99
2016-12-26T13:05:51.415Z,99.99
2016-12-26T13:07:02.396Z,99.99
2016-12-26T13:08:13.382Z,99.99
2016-12-26T13:09:24.368Z,99.99
2016-12-26T13:10:35.432Z,99.99
2016-12-26T13:11:46.426Z,99.99
2016-12-26T13:12:57.415Z,99.99
2016-12-26T13:14:08.417Z,99.99
2016-12-26T13:15:19.412Z,99.99
2016-12-26T13:16:30.658Z,99.99
2016-12-26T13:17:41.674Z,99.99
2016-12-26T13:18:53.088Z,99.99
2016-12-26T13:20:04.079Z,99.99
2016-12-26T13:21:15.070Z,99.99
2016-12-26T13:22:26.109Z,99.99
2016-12-26T13:23:37.091Z,99.99
2016-12-26T13:24:48.075Z,99.99
2016-12-26T13:25:59.063Z,99.99
2016-12-26T13:27:10.301Z,99.99
2016-12-26T13:28:21.294Z,99.99
2016-12-26T13:29:32.284Z,99.99
2016-12-26T13:30:43.464Z,99.99
2016-12-26T13:31:54.450Z,99.99
2016-12-26T13:33:05.485Z,99.99
2016-12-26T13:34:16.671Z,99.99
2016-12-26T13:35:27.694Z,99.99
2016-12-26T13:36:38.685Z,99.99
2016-12-26T13:37:49.862Z,99.99
2016-12-26T13:39:00.854Z,99.99
2016-12-26T13:40:11.836Z,99.99
2016-12-26T13:41:22.821Z,99.99
2016-12-26T13:42:33.805Z,99.99
2016-12-26T13:43:44.986Z,99.99
2016-12-26T13:44:56.018Z,99.99
2016-12-26T13:46:06.995Z,99.99
2016-12-26T13:47:17.978Z,99.99
2016-12-26T13:48:29.367Z,99.99
2016-12-26T13:49:40.354Z,99.99
2016-12-26T13:50:51.339Z,99.99
2016-12-26T13:52:02.528Z,99.99
2016-12-26T13:53:13.516Z,99.99
2016-12-26T13:54:24.498Z,99.99
2016-12-26T13:55:35.538Z,99.99
2016-12-26T13:56:46.531Z,99.99
2016-12-26T13:57:57.513Z,99.99
2016-12-26T13:59:08.499Z,99.99
2016-12-26T14:00:19.682Z,99.99
2016-12-26T14:01:30.716Z,99.99
2016-12-26T14:02:41.702Z,99.99
2016-12-26T14:03:52.695Z,99.99
2016-12-26T14:05:03.690Z,99.99
2016-12-26T14:06:14.878Z,99.99
2016-12-26T14:07:25.919Z,99.99
2016-12-26T14:08:36.907Z,99.99
2016-12-26T14:09:47.884Z,99.99
2016-12-26T14:10:58.864Z,99.99
2016-12-26T14:12:09.851Z,99.99
2016-12-26T14:13:20.894Z,99.99
2016-12-26T14:14:32.079Z,99.99
2016-12-26T14:15:43.268Z,99.99
2016-12-26T14:16:54.470Z,99.99
2016-12-26T14:18:05.508Z,99.99
2016-12-26T14:19:16.522Z,99.99
2016-12-26T14:20:27.515Z,99.99
2016-12-26T14:21:38.505Z,99.99
2016-12-26T14:22:49.498Z,99.99
2016-12-26T14:24:00.540Z,99.99
2016-12-26T14:25:11.778Z,99.99
2016-12-26T14:26:22.758Z,99.99
2016-12-26T14:27:33.948Z,99.99
2016-12-26T14:28:44.927Z,99.99
2016-12-26T14:29:55.961Z,99.99
2016-12-26T14:31:07.146Z,99.99
2016-12-26T14:32:18.130Z,99.99
2016-12-26T14:33:29.319Z,99.99
2016-12-26T14:34:40.310Z,99.99
2016-12-26T14:35:51.490Z,99.99
2016-12-26T14:37:02.478Z,99.99
2016-12-26T14:38:13.494Z,99.99
2016-12-26T14:39:24.482Z,99.99
2016-12-26T14:40:35.917Z,99.99
2016-12-26T14:41:46.905Z,99.99
2016-12-26T14:42:57.892Z,99.99
2016-12-26T14:44:08.875Z,99.99
2016-12-26T14:45:19.859Z,99.99
2016-12-26T14:46:30.949Z,99.99
2016-12-26T14:47:41.933Z,99.99
2016-12-26T14:48:52.924Z,99.99
2016-12-26T14:50:03.917Z,99.99
2016-12-26T14:51:14.906Z,99.99
2016-12-26T14:52:25.932Z,99.99
2016-12-26T14:53:37.315Z,99.99
2016-12-26T14:54:48.304Z,99.99
2016-12-26T14:55:59.286Z,99.99
2016-12-26T14:57:10.264Z,99.99
2016-12-26T14:58:21.241Z,99.99
2016-12-26T14:59:32.226Z,99.99
2016-12-26T15:00:43.214Z,99.99
2016-12-26T15:01:54.197Z,99.99
2016-12-26T15:03:05.228Z,99.99
2016-12-26T15:04:16.220Z,99.99
2016-12-26T15:05:27.205Z,99.99
2016-12-26T15:06:38.193Z,99.99
2016-12-26T15:07:49.369Z,99.99
2016-12-26T15:09:00.433Z,99.99
2016-12-26T15:10:11.624Z,99.99
2016-12-26T15:11:22.609Z,99.99
2016-12-26T15:12:33.787Z,99.99
2016-12-26T15:13:44.770Z,99.99
2016-12-26T15:14:55.806Z,99.99
2016-12-26T15:16:06.992Z,99.99